Flight Track Log - Related Links

Times and Time Zones

All times are in EDT time to prevent confusion due to time zone crossing. See the UAL4236 flight status page for this flight to view local times or setup timezone preferences in your user account.

Time Position Orientation Groundspeed Altitude Reporting Facility
EDT Latitude Longitude Course Direction KTS MPH feet Rate Location/Type
Sun 10:03:10 AM 29.9639 -95.3433 276° West 159 183 700  Level Houston Center
Sun 10:04:17 AM 29.9142 -95.3758 210° Southwest 224 258 2,500 2,066 Climbing Houston Center
Sun 10:05:12 AM 29.8961 -95.4375 251° West 239 275 4,900 2,534 Climbing Houston Center
Sun 10:06:13 AM 29.9164 -95.5125 287° West 251 289 7,400 2,410 Climbing Houston Center
Sun 10:07:00 AM 30.0406 -95.8872 276° West  Level FlightAware Approximate
Sun 10:07:14 AM 29.9383 -95.5947 287° West 256 295 9,800  Level Houston Center
Sun 10:08:00 AM 30.0499 -95.9986 276° West  Level FlightAware Approximate
Sun 10:08:16 AM 29.9619 -95.6717 290° West 265 305 11,100  Level Houston Center
Sun 10:09:17 AM 29.9881 -95.7656 288° West 300 345 12,100 1,033 Climbing Houston Center
Sun 10:10:18 AM 30.0169 -95.8686 288° West 336 387 13,200 1,180 Climbing Houston Center
Sun 10:11:19 AM 30.0458 -95.9758 287° West 349 402 14,500 1,268 Climbing Houston Center
Sun 10:12:21 AM 30.0761 -96.0894 287° West 353 406 15,800 1,268 Climbing Houston Center
Sun 10:13:22 AM 30.0922 -96.2008 280° West 355 409 17,100 1,328 Climbing Houston Center
Sun 10:14:23 AM 30.1097 -96.3136 280° West 359 413 18,500 1,328 Climbing Houston Center
Sun 10:15:24 AM 30.1303 -96.4447 280° West 359 413 19,800 1,122 Climbing Houston Center
Sun 10:16:26 AM 30.1467 -96.5633 279° West 368 423 20,800 1,024 Climbing Houston Center
Sun 10:17:27 AM 30.1653 -96.6822 280° West 372 428 21,900 1,131 Climbing Houston Center
Sun 10:18:28 AM 30.1836 -96.8008 280° West 372 428 23,100 1,122 Climbing Houston Center
Sun 10:19:30 AM 30.2006 -96.9189 279° West 369 425 24,200 1,024 Climbing Houston Center
Sun 10:20:31 AM 30.2192 -97.0378 280° West 371 427 25,200 1,033 Climbing Houston Center
Sun 10:21:32 AM 30.2358 -97.1569 279° West 371 427 26,300 1,122 Climbing Houston Center
Sun 10:22:34 AM 30.2531 -97.2728 280° West 363 418 27,500 1,355 Climbing Houston Center
Sun 10:23:36 AM 30.2694 -97.3864 280° West 357 411 29,100 1,623 Climbing Houston Center
Sun 10:24:36 AM 30.2836 -97.4917 279° West 332 382 30,800 1,328 Climbing Houston Center
Sun 10:25:38 AM 30.2997 -97.5978 280° West 330 380 31,800 976 Climbing Houston Center
Sun 10:26:39 AM 30.3158 -97.7083 280° West 339 390 32,800 976 Climbing Houston Center
Sun 10:27:41 AM 30.3314 -97.8211 279° West 348 400 33,800 976 Climbing Houston Center
Sun 10:28:42 AM 30.3519 -97.9303 282° West 345 397 34,800 927 Climbing Houston Center
Sun 10:29:44 AM 30.3733 -98.0419 283° West 347 399 35,700 585 Climbing Houston Center
Sun 10:30:45 AM 30.3994 -98.1747 283° West 355 409 36,000 148 Climbing Houston Center
Sun 10:31:46 AM 30.4222 -98.2936 283° West 373 429 36,000  Level Houston Center
Sun 10:32:48 AM 30.4464 -98.4194 283° West 390 449 36,000  Level Houston Center
Sun 10:33:49 AM 30.4703 -98.5408 283° West 384 442 36,000  Level Houston Center
Sun 10:34:51 AM 30.4917 -98.6611 282° West 377 434 36,000  Level Houston Center
Sun 10:35:52 AM 30.5150 -98.7800 283° West 375 432 36,000  Level Houston Center
Sun 10:36:54 AM 30.5378 -98.8992 283° West 376 433 36,000  Level Houston Center
Sun 10:37:55 AM 30.5611 -99.0183 283° West 374 430 36,000  Level Houston Center
Sun 10:38:57 AM 30.5831 -99.1369 282° West 374 430 36,000 -49 Level Houston Center
Sun 10:39:58 AM 30.6089 -99.2697 283° West 377 434 35,900 -49 Descending Houston Center
Sun 10:41:00 AM 30.6314 -99.3906 282° West 382 440 35,900 49 Level Houston Center
Sun 10:42:01 AM 30.6542 -99.5117 282° West 384 442 36,000 49 Climbing Houston Center
Sun 10:43:03 AM 30.6739 -99.6311 281° West 381 438 36,000  Level Houston Center
Sun 10:44:04 AM 30.6958 -99.7497 282° West 379 436 36,000  Level Houston Center
Sun 10:45:06 AM 30.7161 -99.8631 282° West 366 421 36,000  Level Houston Center
Sun 10:46:07 AM 30.7375 -99.9817 282° West 376 433 36,000  Level Houston Center
Sun 10:47:09 AM 30.7619 -100.1239 281° West 376 433 36,000  Level Houston Center
Sun 10:48:10 AM 30.7831 -100.2428 282° West 376 433 36,000 -197 Level Houston Center
Sun 10:49:11 AM 30.8064 -100.3622 283° West 379 436 35,600 -1,171 Descending Houston Center
Sun 10:50:13 AM 30.8269 -100.4833 281° West 381 438 33,600 -1,659 Descending Houston Center
Sun 10:51:14 AM 30.8456 -100.5992 281° West 366 421 32,200 -780 Descending Houston Center
Sun 10:52:16 AM 30.8692 -100.7167 283° West 371 427 32,000 -98 Descending Houston Center
Sun 10:53:17 AM 30.8886 -100.8433 280° West 392 451 32,000  Level Houston Center
Sun 10:54:19 AM 30.9133 -100.9883 281° West 378 435 32,000  Level Houston Center
Sun 10:55:20 AM 30.9336 -101.1086 281° West 380 437 32,000  Level Houston Center
Sun 10:56:22 AM 30.9556 -101.2283 282° West 376 433 32,000  Level Houston Center
Sun 10:57:23 AM 30.9764 -101.3511 281° West 387 445 32,000  Level Houston Center
Sun 10:57:52 AM 30.9881 -101.4244 281° West 390 449 32,000  Level Albuquerque Center
Sun 10:58:54 AM 31.0078 -101.5494 280° West 392 451 32,000  Level Albuquerque Center
Sun 10:59:56 AM 31.0272 -101.6719 281° West 388 447 32,000  Level Albuquerque Center
Sun 11:00:58 AM 31.0481 -101.7953 281° West 388 447 32,000  Level Albuquerque Center
Sun 11:02:00 AM 31.0681 -101.9181 281° West 386 444 32,000  Level Albuquerque Center
Sun 11:03:02 AM 31.0864 -102.0433 280° West 397 457 32,000  Level Albuquerque Center
Sun 11:04:03 AM 31.1075 -102.1631 282° West 382 440 32,000  Level Albuquerque Center
Sun 11:05:05 AM 31.1303 -102.3114 280° West 386 444 32,000  Level Albuquerque Center
Sun 11:06:07 AM 31.1503 -102.4353 281° West 388 447 32,000  Level Albuquerque Center
Sun 11:07:09 AM 31.1700 -102.5656 280° West 381 438 32,000  Level Albuquerque Center
Sun 11:08:11 AM 31.1897 -102.6903 281° West 386 444 32,000  Level Albuquerque Center
Sun 11:09:13 AM 31.2100 -102.8136 281° West 387 445 32,000  Level Albuquerque Center
Sun 11:10:14 AM 31.2286 -102.9378 280° West 387 445 32,000  Level Albuquerque Center
Sun 11:11:16 AM 31.2481 -103.0633 280° West 391 450 32,000  Level Albuquerque Center
Sun 11:12:18 AM 31.2672 -103.1878 280° West 390 449 32,000  Level Albuquerque Center
Sun 11:13:20 AM 31.2858 -103.3144 280° West 394 453 32,000  Level Albuquerque Center
Sun 11:14:22 AM 31.3078 -103.4669 280° West 396 456 32,000  Level Albuquerque Center
Sun 11:15:24 AM 31.3281 -103.5931 281° West 394 453 32,000 -48 Level Albuquerque Center
Sun 11:16:26 AM 31.3464 -103.7183 280° West 393 452 31,900  Descending Albuquerque Center
Sun 11:17:28 AM 31.3650 -103.8442 280° West 388 447 32,000 48 Climbing Albuquerque Center
Sun 11:18:30 AM 31.3831 -103.9656 280° West 382 440 32,000 -48 Level Albuquerque Center
Sun 11:19:32 AM 31.3997 -104.0858 279° West 377 434 31,900 -48 Descending Albuquerque Center
Sun 11:20:34 AM 31.4175 -104.2067 280° West 377 434 31,900 48 Level Albuquerque Center
Sun 11:21:36 AM 31.4406 -104.3542 280° West 382 440 32,000 -146 Climbing Albuquerque Center
Sun 11:22:37 AM 31.4567 -104.4769 279° West 384 442 31,600 -1,122 Descending Albuquerque Center
Sun 11:23:39 AM 31.4694 -104.6042 277° West 389 448 29,700 -1,887 Descending Albuquerque Center
Sun 11:24:41 AM 31.4833 -104.7375 277° West 399 459 27,700 -1,887 Descending Albuquerque Center
Sun 11:25:43 AM 31.4967 -104.8711 277° West 409 471 25,800 -1,887 Descending Albuquerque Center
Sun 11:26:45 AM 31.5108 -105.0019 277° West 410 472 23,800 -2,129 Descending Albuquerque Center
Sun 11:27:47 AM 31.5269 -105.1575 277° West 407 468 21,400 -2,081 Descending Albuquerque Center
Sun 11:28:49 AM 31.5389 -105.2839 276° West 399 459 19,500 -2,032 Descending Albuquerque Center
Sun 11:29:51 AM 31.5503 -105.4078 276° West 387 445 17,200 -2,081 Descending Albuquerque Center
Sun 11:30:53 AM 31.5617 -105.5250 277° West 368 423 15,200 -1,839 Descending Albuquerque Center
Sun 11:31:55 AM 31.5739 -105.6450 277° West 370 426 13,400 -1,632 Descending Albuquerque Center
Sun 11:32:47 AM 31.5839 -105.7608 276° West 345 397 12,100 -1,346 Descending Albuquerque Center
Sun 11:33:42 AM 31.6103 -105.8467 290° West 287 330 11,000 -1,437 Descending Albuquerque Center
Sun 11:33:58 AM 31.6211 -105.8639 306° West 288 331 10,400 -2,000 Descending Albuquerque Center
Sun 11:34:42 AM 31.6475 -105.9194 299° West 236 272 9,000 -1,742 Descending Albuquerque Center
Sun 11:35:00 AM 31.6542 -105.9336 299° West 247 284 8,600 -984 Descending Albuquerque Center
Sun 11:35:43 AM 31.6803 -105.9811 303° West 220 253 8,000 -677 Descending Albuquerque Center
Sun 11:36:02 AM 31.6864 -105.9961 296° West 227 261 7,900 -100 Descending Albuquerque Center
Sun 11:36:43 AM 31.7089 -106.0439 299° West 221 254 7,900 -290 Level Albuquerque Center
Sun 11:37:04 AM 31.7169 -106.0583 303° West 220 253 7,600 -885 Descending Albuquerque Center
Sun 11:37:44 AM 31.7419 -106.1081 301° West 224 258 7,000 -677 Descending Albuquerque Center
Sun 11:38:06 AM 31.7489 -106.1217 301° West 224 258 6,900  Descending Albuquerque Center
Sun 11:38:45 AM 31.7719 -106.1656 302° West 208 239 7,000  Climbing Albuquerque Center
Sun 11:39:08 AM 31.7786 -106.1786 301° West 208 239 6,900 -800 Descending Albuquerque Center
Sun 11:39:45 AM 31.7931 -106.2228 291° West 178 205 6,200 -1,082 Descending Albuquerque Center
Sun 11:40:09 AM 31.7947 -106.2439 275° West 162 186 5,800 -689 Descending Albuquerque Center
Sun 11:40:46 AM 31.7950 -106.2697 271° West 133 153 5,500 -677 Descending Albuquerque Center
Sun 11:41:11 AM 31.7972 -106.2894 278° West 143 165 5,100 -960 Descending Albuquerque Center

Login

Don't have an account? Register now (free) for customized features, flight alerts, and more!